Time;durP1;ratioP1;P1;durP2;ratioP2;P2;SDS_P1;SDS_P2;PMS_P1;PMS_P2;Temp;Humidity;BMP_temperature;BMP_pressure;BME280_temperature;BME280_humidity;BME280_pressure;Samples;Min_cycle;Max_cycle;Signal;HPM_P1;HPM_P2
2022/11/29 00:01:26;;;;;;;17.57;12.53;;;4.00;1.00;;;;;;5048480;28;20205;-76
2022/11/29 00:03:52;;;;;;;16.77;12.93;;;4.00;1.00;;;;;;5048136;28;20210;-80
2022/11/29 00:06:20;;;;;;;17.67;13.70;;;4.00;1.00;;;;;;5047329;28;20210;-79
2022/11/29 00:08:46;;;;;;;15.17;12.57;;;4.00;1.00;;;;;;5049256;28;20178;-79
2022/11/29 00:14:03;;;;;;;16.53;12.27;;;4.00;1.00;;;;;;5048407;28;20221;-78
2022/11/29 00:16:29;;;;;;;16.17;12.27;;;4.00;1.00;;;;;;5047358;28;20601;-78
2022/11/29 00:18:55;;;;;;;16.53;12.63;;;4.00;1.00;;;;;;5049836;28;20189;-78
2022/11/29 00:21:20;;;;;;;15.93;12.73;;;4.00;1.00;;;;;;5048884;28;20684;-78
2022/11/29 00:23:46;;;;;;;16.57;13.13;;;4.00;1.00;;;;;;5049797;28;20699;-79
2022/11/29 00:26:11;;;;;;;18.17;13.37;;;4.00;1.00;;;;;;5048659;28;20202;-80
2022/11/29 00:28:37;;;;;;;16.93;13.47;;;4.00;1.00;;;;;;5047874;28;20205;-78
2022/11/29 00:31:16;;;;;;;15.90;12.73;;;4.00;1.00;;;;;;5048813;28;20189;-79
2022/11/29 00:33:42;;;;;;;16.37;13.13;;;4.00;1.00;;;;;;5048906;28;20284;-79
2022/11/29 00:36:08;;;;;;;17.43;13.20;;;4.00;1.00;;;;;;5048759;28;20285;-77
2022/11/29 00:38:33;;;;;;;17.70;14.23;;;4.00;1.00;;;;;;5047645;28;20186;-78
2022/11/29 00:40:59;;;;;;;16.97;13.07;;;4.00;1.00;;;;;;5047747;28;20190;-78
2022/11/29 00:43:24;;;;;;;17.90;13.50;;;4.00;1.00;;;;;;5049225;28;20214;-78
2022/11/29 00:45:50;;;;;;;15.13;12.13;;;4.00;1.00;;;;;;5049399;28;20217;-79
2022/11/29 00:48:16;;;;;;;17.77;13.07;;;4.00;1.00;;;;;;5050415;28;20198;-77
2022/11/29 00:50:41;;;;;;;17.53;13.17;;;4.00;1.00;;;;;;5047260;28;20182;-79
2022/11/29 00:53:07;;;;;;;17.37;13.43;;;4.00;1.00;;;;;;5048237;28;20198;-79
2022/11/29 00:55:32;;;;;;;16.50;12.90;;;4.10;1.00;;;;;;5044143;28;20290;-78
2022/11/29 00:57:58;;;;;;;16.00;12.97;;;4.00;1.00;;;;;;5048659;28;20182;-78
2022/11/29 01:00:24;;;;;;;16.33;12.97;;;4.00;1.00;;;;;;5048028;28;20182;-79
2022/11/29 01:02:49;;;;;;;17.13;13.37;;;4.10;1.00;;;;;;5048556;28;20256;-79
2022/11/29 01:05:15;;;;;;;16.47;13.17;;;4.00;1.00;;;;;;5047334;28;20201;-78
2022/11/29 01:07:40;;;;;;;16.87;13.27;;;4.00;1.00;;;;;;5046563;28;20680;-78
2022/11/29 01:10:06;;;;;;;17.50;13.57;;;3.10;1.00;;;;;;5047400;28;20787;-79
2022/11/29 01:12:35;;;;;;;22.37;15.57;;;4.00;1.00;;;;;;5047407;28;20206;-79
2022/11/29 01:15:01;;;;;;;26.03;18.30;;;4.00;1.00;;;;;;5048155;28;20174;-78
2022/11/29 01:17:27;;;;;;;18.87;14.17;;;4.00;1.00;;;;;;5047608;28;20310;-79
2022/11/29 01:19:52;;;;;;;22.10;14.73;;;4.10;1.00;;;;;;5048534;28;20695;-77
2022/11/29 01:22:18;;;;;;;20.83;13.90;;;4.10;1.00;;;;;;5045630;28;20260;-79
2022/11/29 01:24:44;;;;;;;27.80;18.87;;;4.10;1.00;;;;;;5047784;28;20217;-79
2022/11/29 01:27:09;;;;;;;20.30;14.87;;;4.20;1.00;;;;;;5048072;28;20607;-78
2022/11/29 01:29:35;;;;;;;16.07;13.23;;;4.20;1.00;;;;;;5048158;28;20751;-79
2022/11/29 01:32:00;;;;;;;17.97;13.13;;;4.20;1.00;;;;;;5046083;28;20175;-76
2022/11/29 01:34:26;;;;;;;19.67;13.83;;;4.10;1.00;;;;;;5046462;28;20185;-79
2022/11/29 01:36:52;;;;;;;15.87;12.83;;;4.10;1.00;;;;;;5047836;28;20247;-78
2022/11/29 01:39:17;;;;;;;16.70;12.87;;;4.10;1.00;;;;;;5047498;28;20186;-77
2022/11/29 01:41:43;;;;;;;15.80;13.00;;;4.10;1.00;;;;;;5047183;28;20194;-80
2022/11/29 01:44:11;;;;;;;17.07;13.13;;;4.10;1.00;;;;;;5046014;28;20875;-78
2022/11/29 01:46:39;;;;;;;18.17;13.20;;;4.10;1.00;;;;;;5045535;28;20209;-80
2022/11/29 01:49:18;;;;;;;21.27;15.63;;;4.10;1.00;;;;;;5045475;28;20178;-78
2022/11/29 01:51:51;;;;;;;17.40;13.37;;;4.10;1.00;;;;;;5046837;28;20249;-78
2022/11/29 01:54:18;;;;;;;17.33;13.73;;;4.20;1.00;;;;;;5045427;28;20765;-79
2022/11/29 01:56:47;;;;;;;18.00;13.60;;;4.20;1.00;;;;;;5047520;28;20571;-80
2022/11/29 01:59:16;;;;;;;18.33;13.70;;;4.20;1.00;;;;;;5047066;28;20186;-79
2022/11/29 02:01:42;;;;;;;14.80;12.70;;;4.20;1.00;;;;;;5047364;28;20268;-78
2022/11/29 02:04:08;;;;;;;16.67;13.43;;;4.20;1.00;;;;;;5046490;28;20363;-77
2022/11/29 02:06:37;;;;;;;15.83;12.73;;;4.10;1.00;;;;;;5047471;28;20195;-79
2022/11/29 02:09:03;;;;;;;15.47;12.17;;;4.20;1.00;;;;;;5047209;28;20192;-77
2022/11/29 02:12:20;;;;;;;18.03;13.73;;;4.20;1.00;;;;;;5045278;28;20190;-78
2022/11/29 02:14:48;;;;;;;17.60;13.87;;;4.10;1.00;;;;;;5046911;28;20178;-79
2022/11/29 02:17:38;;;;;;;16.20;13.33;;;4.20;1.00;;;;;;5045044;28;20190;-78
2022/11/29 02:20:39;;;;;;;16.40;13.57;;;4.20;1.00;;;;;;5047132;28;20208;-80
2022/11/29 02:23:30;;;;;;;16.73;13.37;;;4.20;1.00;;;;;;5046282;28;20671;-79
2022/11/29 02:26:27;;;;;;;17.50;13.17;;;4.20;1.00;;;;;;5045413;28;20218;-79
2022/11/29 02:28:55;;;;;;;18.10;13.13;;;4.20;1.00;;;;;;5046316;28;20189;-77
2022/11/29 02:31:30;;;;;;;17.83;13.23;;;4.20;1.00;;;;;;5044813;28;20394;-78
2022/11/29 02:34:05;;;;;;;16.33;13.10;;;4.10;1.00;;;;;;5046160;28;20741;-80
2022/11/29 02:37:04;;;;;;;18.37;13.97;;;4.20;1.00;;;;;;5046304;28;20185;-80
2022/11/29 02:39:32;;;;;;;16.70;12.93;;;4.20;1.00;;;;;;5046521;28;20529;-79
2022/11/29 02:41:58;;;;;;;18.23;13.70;;;4.20;99.90;;;;;;5046372;28;20186;-78
2022/11/29 02:44:26;;;;;;;17.70;13.23;;;4.10;99.90;;;;;;5046240;28;20206;-79
2022/11/29 02:47:16;;;;;;;16.70;13.33;;;4.20;1.00;;;;;;5046474;28;20558;-78
2022/11/29 02:49:51;;;;;;;16.03;13.10;;;4.20;1.00;;;;;;5046489;28;20853;-78
2022/11/29 02:52:36;;;;;;;16.33;13.30;;;4.20;1.00;;;;;;5045773;28;20563;-78
2022/11/29 02:55:16;;;;;;;15.33;12.87;;;4.20;1.00;;;;;;5046639;28;20255;-78
2022/11/29 02:58:09;;;;;;;16.17;12.80;;;4.20;1.00;;;;;;5046311;28;20181;-77
2022/11/29 03:00:41;;;;;;;17.73;13.93;;;4.20;99.90;;;;;;5050864;28;20193;-77
2022/11/29 03:03:38;;;;;;;16.77;13.13;;;4.20;1.00;;;;;;5049403;28;20202;-77
2022/11/29 03:06:12;;;;;;;16.67;12.57;;;4.20;1.00;;;;;;5050053;28;20222;-77
2022/11/29 03:09:06;;;;;;;17.67;13.33;;;4.20;1.00;;;;;;5049477;28;20185;-78
2022/11/29 03:11:54;;;;;;;17.33;13.03;;;4.30;1.00;;;;;;5050126;28;20178;-77
2022/11/29 03:14:29;;;;;;;17.10;13.27;;;4.30;99.90;;;;;;5050659;28;20197;-79
2022/11/29 03:17:32;;;;;;;18.13;13.23;;;4.30;1.00;;;;;;5051476;28;20185;-78
2022/11/29 03:20:15;;;;;;;19.87;13.03;;;4.30;1.00;;;;;;5049926;28;20563;-78
2022/11/29 03:23:05;;;;;;;15.87;12.80;;;4.30;1.00;;;;;;5050091;28;20202;-79
2022/11/29 03:25:49;;;;;;;15.57;12.87;;;4.40;1.00;;;;;;5051224;28;20741;-78
2022/11/29 03:28:24;;;;;;;16.27;13.10;;;4.30;1.00;;;;;;5050458;28;20182;-78
2022/11/29 03:31:30;;;;;;;16.17;13.23;;;4.30;1.00;;;;;;5050882;28;20202;-78
2022/11/29 03:34:11;;;;;;;17.53;12.87;;;4.30;1.00;;;;;;5049871;28;20213;-79
2022/11/29 03:36:46;;;;;;;17.20;13.40;;;4.20;1.00;;;;;;5050343;28;20182;-77
2022/11/29 03:39:18;;;;;;;17.87;13.43;;;4.20;1.00;;;;;;5050425;28;20647;-77
2022/11/29 03:42:08;;;;;;;17.00;13.73;;;4.30;1.00;;;;;;5050035;28;20170;-79
2022/11/29 03:44:40;;;;;;;17.43;13.80;;;4.20;1.00;;;;;;5052287;28;20708;-80
2022/11/29 03:47:06;;;;;;;18.13;13.20;;;4.20;1.00;;;;;;5049540;28;20170;-79
2022/11/29 03:49:39;;;;;;;16.63;13.20;;;4.20;1.00;;;;;;5050652;28;20201;-78
2022/11/29 03:52:16;;;;;;;19.53;14.33;;;4.30;1.00;;;;;;5048590;28;20174;-79
2022/11/29 03:54:50;;;;;;;19.17;13.83;;;4.20;1.00;;;;;;5041803;28;20189;-80
2022/11/29 03:57:25;;;;;;;17.07;13.90;;;4.20;1.00;;;;;;5050478;28;20178;-78
2022/11/29 03:59:53;;;;;;;18.43;14.57;;;4.20;1.00;;;;;;5050323;28;20191;-79
2022/11/29 04:02:18;;;;;;;19.30;14.23;;;4.20;1.00;;;;;;5048143;28;20240;-79
2022/11/29 04:04:53;;;;;;;18.63;14.03;;;4.20;1.00;;;;;;5048215;28;20218;-79
2022/11/29 04:07:30;;;;;;;19.10;14.40;;;4.30;1.00;;;;;;5049821;28;20205;-79
2022/11/29 04:10:42;;;;;;;16.80;13.73;;;4.30;1.00;;;;;;5048821;28;20178;-78
2022/11/29 04:13:26;;;;;;;18.23;14.07;;;4.20;1.00;;;;;;5048971;28;20446;-79
2022/11/29 04:16:09;;;;;;;19.57;13.97;;;4.20;1.00;;;;;;5049073;28;20212;-79
2022/11/29 04:18:41;;;;;;;20.43;14.83;;;4.20;1.00;;;;;;5049958;28;20179;-80
2022/11/29 04:21:28;;;;;;;18.13;14.53;;;4.20;1.00;;;;;;5050113;28;20186;-80
2022/11/29 04:24:33;;;;;;;19.30;14.97;;;4.20;1.00;;;;;;5048801;28;20615;-80
2022/11/29 04:27:36;;;;;;;18.30;14.30;;;4.20;1.00;;;;;;5048496;28;20597;-79
2022/11/29 04:30:07;;;;;;;19.03;14.77;;;4.20;1.00;;;;;;5048627;28;20265;-77
2022/11/29 04:32:55;;;;;;;19.37;14.30;;;4.20;2.30;;;;;;5049000;28;20209;-80
2022/11/29 04:35:58;;;;;;;18.40;14.80;;;4.20;51.60;;;;;;5048547;28;20194;-80
2022/11/29 04:39:04;;;;;;;20.33;15.23;;;4.20;32.30;;;;;;5048524;28;20232;-77
2022/11/29 04:41:57;;;;;;;17.53;13.33;;;4.20;48.90;;;;;;5048345;28;20186;-81
2022/11/29 04:44:42;;;;;;;20.47;14.90;;;4.10;94.40;;;;;;5048159;28;20576;-79
2022/11/29 04:47:11;;;;;;;21.53;14.90;;;4.20;99.90;;;;;;5047584;28;20209;-79
2022/11/29 04:49:59;;;;;;;17.07;13.30;;;4.20;99.90;;;;;;5046780;28;20656;-77
2022/11/29 04:52:46;;;;;;;20.60;14.73;;;4.20;99.90;;;;;;5047601;28;20199;-79
2022/11/29 04:55:32;;;;;;;18.80;14.63;;;4.20;99.90;;;;;;5048331;28;20699;-80
2022/11/29 04:58:18;;;;;;;18.60;14.37;;;4.20;99.90;;;;;;5047754;28;20564;-79
2022/11/29 05:01:00;;;;;;;19.30;14.73;;;4.10;99.90;;;;;;5047752;28;20881;-80
2022/11/29 05:03:59;;;;;;;19.30;14.97;;;4.20;99.90;;;;;;5047193;28;20209;-80
2022/11/29 05:07:13;;;;;;;20.37;15.53;;;4.20;99.90;;;;;;5046926;28;20299;-81
2022/11/29 05:10:10;;;;;;;19.60;15.07;;;4.20;99.90;;;;;;5045059;28;20186;-78
2022/11/29 05:12:50;;;;;;;20.83;14.90;;;4.20;99.90;;;;;;5044575;28;20209;-80
2022/11/29 05:15:34;;;;;;;19.87;14.47;;;4.20;99.90;;;;;;5047506;28;20268;-79
2022/11/29 05:18:22;;;;;;;21.60;16.07;;;4.20;99.90;;;;;;5046023;28;20600;-79
2022/11/29 05:20:54;;;;;;;21.70;16.03;;;4.20;99.90;;;;;;5047946;28;20231;-79
2022/11/29 05:23:37;;;;;;;21.60;15.40;;;4.20;99.90;;;;;;5045801;28;20690;-79
2022/11/29 05:26:49;;;;;;;22.17;15.43;;;4.20;99.90;;;;;;5047544;28;20197;-78
2022/11/29 05:29:35;;;;;;;20.17;15.33;;;4.20;99.90;;;;;;5047114;28;20190;-79
2022/11/29 05:32:13;;;;;;;21.07;15.97;;;4.20;99.90;;;;;;5045866;28;20189;-77
2022/11/29 05:35:12;;;;;;;19.63;14.70;;;4.20;25.80;;;;;;5047110;28;20185;-79
2022/11/29 05:38:02;;;;;;;19.60;15.03;;;4.20;31.50;;;;;;5049983;28;20182;-77
2022/11/29 05:40:48;;;;;;;19.97;15.30;;;4.20;26.70;;;;;;5047025;28;20175;-79
2022/11/29 05:43:42;;;;;;;20.30;15.87;;;4.20;1.00;;;;;;5046508;28;20213;-79
2022/11/29 05:46:47;;;;;;;20.07;15.20;;;4.20;1.00;;;;;;5046911;28;20558;-80
2022/11/29 05:49:15;;;;;;;21.57;15.40;;;4.20;1.00;;;;;;5047617;28;20245;-80
2022/11/29 05:52:05;;;;;;;19.50;15.27;;;4.20;5.30;;;;;;5047523;28;20178;-79
2022/11/29 05:54:52;;;;;;;20.20;15.13;;;4.20;1.00;;;;;;5056137;28;20933;-77
2022/11/29 05:57:48;;;;;;;20.30;15.60;;;4.20;49.00;;;;;;5046666;28;20186;-80
2022/11/29 06:00:16;;;;;;;20.47;15.37;;;4.20;99.90;;;;;;5047707;28;20190;-79
2022/11/29 06:02:58;;;;;;;22.63;17.00;;;4.20;99.90;;;;;;5046695;28;20701;-79
2022/11/29 06:05:23;;;;;;;21.23;15.90;;;4.20;99.90;;;;;;5047355;28;20202;-79
2022/11/29 06:08:11;;;;;;;24.13;17.33;;;4.20;99.90;;;;;;5046650;28;20194;-79
2022/11/29 06:10:51;;;;;;;24.13;17.30;;;4.20;93.60;;;;;;5044740;28;20211;-79
2022/11/29 06:13:32;;;;;;;22.23;16.97;;;4.20;1.00;;;;;;5044495;28;20277;-78
2022/11/29 06:16:35;;;;;;;24.83;17.87;;;4.20;1.00;;;;;;5043869;28;20190;-79
2022/11/29 06:19:39;;;;;;;23.20;17.57;;;4.10;3.70;;;;;;5044438;28;20761;-79
2022/11/29 06:22:15;;;;;;;24.97;18.97;;;4.10;95.50;;;;;;5024989;28;21388;-81
2022/11/29 06:25:08;;;;;;;23.90;18.50;;;4.10;27.90;;;;;;5041882;28;20201;-78
2022/11/29 06:27:35;;;;;;;23.83;17.23;;;4.10;86.30;;;;;;5036176;28;20202;-78
2022/11/29 06:30:08;;;;;;;26.27;17.97;;;4.00;99.90;;;;;;5044677;28;20533;-81
2022/11/29 06:32:54;;;;;;;25.43;19.43;;;4.00;99.90;;;;;;5042607;28;20297;-79
2022/11/29 06:35:49;;;;;;;24.40;18.50;;;4.00;99.90;;;;;;5041509;28;20186;-80
2022/11/29 06:38:24;;;;;;;24.73;18.27;;;4.00;99.90;;;;;;5044053;28;20186;-80
2022/11/29 06:40:50;;;;;;;24.60;18.10;;;4.00;99.90;;;;;;5042114;28;20695;-77
2022/11/29 06:43:16;;;;;;;27.67;20.27;;;4.10;99.90;;;;;;5044171;28;20202;-79
2022/11/29 06:45:50;;;;;;;25.80;18.83;;;4.10;99.90;;;;;;5043833;28;20591;-79
2022/11/29 06:48:24;;;;;;;26.63;20.13;;;4.10;99.90;;;;;;5042701;28;20198;-79
2022/11/29 06:51:00;;;;;;;27.27;19.80;;;4.20;99.90;;;;;;5045177;28;20185;-80
2022/11/29 06:53:44;;;;;;;27.07;20.23;;;4.10;99.90;;;;;;5043707;28;20717;-78
2022/11/29 06:56:32;;;;;;;27.33;19.40;;;4.10;99.90;;;;;;5042861;28;20186;-79
2022/11/29 06:59:27;;;;;;;26.03;19.63;;;4.10;99.90;;;;;;5044346;28;20190;-79
2022/11/29 07:02:10;;;;;;;25.37;18.73;;;4.10;99.90;;;;;;5036454;28;20193;-77
2022/11/29 07:04:53;;;;;;;25.73;18.97;;;4.10;99.90;;;;;;5045330;28;20705;-79
2022/11/29 07:07:21;;;;;;;26.77;20.20;;;4.10;99.90;;;;;;5044357;28;20604;-79
2022/11/29 07:09:50;;;;;;;28.17;19.10;;;4.10;99.90;;;;;;5045589;28;20181;-81
2022/11/29 07:12:17;;;;;;;29.47;20.77;;;4.10;99.90;;;;;;5045112;28;20204;-79
2022/11/29 07:14:43;;;;;;;34.43;29.37;;;4.10;99.90;;;;;;5045070;28;20526;-78
2022/11/29 07:17:38;;;;;;;28.07;22.97;;;4.20;99.90;;;;;;5042176;28;20201;-79
2022/11/29 07:20:29;;;;;;;29.30;21.17;;;4.20;99.90;;;;;;5041835;28;21199;-78
2022/11/29 07:23:07;;;;;;;28.77;23.23;;;4.20;99.90;;;;;;5042681;28;20210;-79
2022/11/29 07:25:57;;;;;;;25.57;20.17;;;4.20;99.90;;;;;;5037387;28;20217;-79
2022/11/29 07:28:42;;;;;;;23.40;19.33;;;4.20;18.30;;;;;;5040698;28;20178;-80
2022/11/29 07:31:36;;;;;;;26.23;18.93;;;4.20;38.20;;;;;;5038037;28;20193;-78
2022/11/29 07:34:04;;;;;;;26.87;20.57;;;4.20;98.10;;;;;;5038588;28;20862;-79
2022/11/29 07:36:40;;;;;;;26.57;19.67;;;4.20;99.90;;;;;;5043332;28;20190;-77
2022/11/29 07:39:18;;;;;;;24.07;19.03;;;4.20;91.00;;;;;;5040928;28;20178;-76
2022/11/29 07:42:03;;;;;;;31.00;21.63;;;4.20;99.90;;;;;;5038916;28;20186;-78
2022/11/29 07:44:54;;;;;;;32.93;25.90;;;4.30;99.90;;;;;;5042467;28;20183;-78
2022/11/29 07:47:20;;;;;;;28.77;19.90;;;4.30;99.90;;;;;;5059945;28;20221;-77
2022/11/29 07:49:46;;;;;;;28.07;21.97;;;4.30;30.00;;;;;;5045452;28;20189;-79
2022/11/29 07:52:13;;;;;;;27.83;22.37;;;4.40;11.40;;;;;;5044865;28;20217;-77
2022/11/29 07:54:39;;;;;;;25.80;18.97;;;4.50;1.00;;;;;;5044817;28;20190;-78
2022/11/29 07:57:05;;;;;;;27.10;20.17;;;4.40;1.00;;;;;;5044488;28;20178;-78
2022/11/29 07:59:31;;;;;;;31.00;22.40;;;4.50;1.00;;;;;;5040298;28;20248;-79
2022/11/29 08:01:57;;;;;;;30.10;21.60;;;4.50;1.00;;;;;;5042976;28;20190;-79
2022/11/29 08:04:23;;;;;;;26.83;21.53;;;4.50;1.00;;;;;;5044730;28;20745;-78
2022/11/29 08:06:49;;;;;;;30.37;23.57;;;4.50;1.00;;;;;;5045245;28;20210;-80
2022/11/29 08:09:14;;;;;;;29.43;21.50;;;4.50;1.00;;;;;;5044799;28;20193;-79
2022/11/29 08:11:40;;;;;;;27.97;21.13;;;4.50;1.00;;;;;;5044190;28;20303;-78
2022/11/29 08:14:05;;;;;;;27.43;19.87;;;4.50;1.00;;;;;;5045114;28;20210;-78
2022/11/29 08:16:31;;;;;;;27.70;19.83;;;4.60;1.00;;;;;;5039901;28;20193;-79
2022/11/29 08:18:57;;;;;;;28.83;20.83;;;4.50;1.00;;;;;;5045022;28;21067;-79
2022/11/29 08:21:23;;;;;;;28.03;20.90;;;4.50;1.00;;;;;;5044402;28;20190;-80
2022/11/29 08:23:50;;;;;;;27.10;19.47;;;4.50;1.00;;;;;;5045248;28;20218;-79
2022/11/29 08:26:17;;;;;;;23.93;19.20;;;4.50;1.00;;;;;;5047605;28;20641;-77
2022/11/29 08:28:43;;;;;;;25.83;19.43;;;4.60;1.00;;;;;;5043760;28;20248;-79
2022/11/29 08:31:10;;;;;;;27.63;19.33;;;4.80;1.00;;;;;;5046030;28;20178;-79
2022/11/29 08:33:38;;;;;;;30.17;21.30;;;4.60;1.00;;;;;;5045039;28;20626;-80
2022/11/29 08:36:12;;;;;;;26.13;19.03;;;4.70;1.00;;;;;;5041117;28;20191;-78
2022/11/29 08:38:38;;;;;;;25.10;18.60;;;4.70;1.00;;;;;;5040777;28;20185;-79
2022/11/29 08:41:06;;;;;;;25.97;19.73;;;4.70;1.00;;;;;;5044833;28;20271;-79
2022/11/29 08:43:32;;;;;;;27.57;20.67;;;4.60;1.00;;;;;;5046171;28;20206;-78
2022/11/29 08:45:58;;;;;;;27.80;21.10;;;4.70;1.00;;;;;;5047079;28;20217;-80
2022/11/29 08:48:25;;;;;;;29.77;22.07;;;4.70;1.00;;;;;;5042042;28;20201;-79
2022/11/29 08:50:51;;;;;;;26.53;19.97;;;4.80;1.00;;;;;;5045480;28;20178;-79
2022/11/29 08:56:01;;;;;;;24.93;19.30;;;4.80;1.00;;;;;;5043936;28;20185;-79
2022/11/29 08:58:27;;;;;;;25.10;19.53;;;4.70;1.00;;;;;;5043758;28;20710;-78
2022/11/29 09:00:53;;;;;;;25.37;20.20;;;4.80;1.00;;;;;;5045588;28;20935;-78
2022/11/29 09:06:09;;;;;;;24.37;18.60;;;4.90;1.00;;;;;;5046761;28;20236;-79
2022/11/29 09:08:34;;;;;;;28.40;21.10;;;4.90;99.90;;;;;;5046081;28;20186;-79
2022/11/29 09:11:05;;;;;;;25.47;18.60;;;4.90;99.90;;;;;;5046486;28;20178;-79
2022/11/29 09:13:31;;;;;;;25.97;18.93;;;4.90;99.90;;;;;;5047162;28;20202;-78
2022/11/29 09:15:56;;;;;;;26.57;19.33;;;5.60;99.90;;;;;;5047445;28;20639;-77
2022/11/29 09:18:22;;;;;;;27.10;19.73;;;5.00;99.90;;;;;;5047243;28;20236;-79
2022/11/29 09:20:47;;;;;;;23.53;18.10;;;5.00;99.90;;;;;;5047212;28;20197;-79
2022/11/29 09:23:13;;;;;;;27.13;19.43;;;5.10;99.90;;;;;;5048014;28;20205;-80
2022/11/29 09:25:39;;;;;;;27.97;20.07;;;5.00;99.90;;;;;;5046583;28;20201;-77
2022/11/29 09:28:05;;;;;;;27.10;19.03;;;5.10;99.90;;;;;;5041143;28;20652;-77
2022/11/29 09:30:31;;;;;;;25.67;19.97;;;5.10;99.90;;;;;;5041433;28;20182;-77
2022/11/29 09:32:59;;;;;;;26.10;19.13;;;5.10;99.90;;;;;;5037262;28;20770;-77
2022/11/29 09:35:24;;;;;;;24.77;19.03;;;5.10;99.90;;;;;;5039079;28;20658;-77
2022/11/29 09:37:50;;;;;;;27.50;20.93;;;5.20;99.90;;;;;;5038303;28;20281;-77
2022/11/29 09:40:26;;;;;;;27.10;20.60;;;5.20;99.90;;;;;;5037216;28;20190;-77
2022/11/29 09:43:09;;;;;;;24.87;19.27;;;5.10;99.90;;;;;;5037955;28;20284;-76
2022/11/29 09:45:41;;;;;;;26.30;20.20;;;5.10;99.90;;;;;;5039585;28;20206;-77
2022/11/29 09:48:24;;;;;;;28.63;20.03;;;5.10;99.90;;;;;;5039697;28;20174;-77
2022/11/29 09:51:04;;;;;;;27.63;20.43;;;5.10;99.90;;;;;;5040227;28;20258;-77
2022/11/29 09:53:52;;;;;;;30.23;19.90;;;5.10;99.90;;;;;;5044622;28;20399;-79
2022/11/29 09:56:32;;;;;;;22.67;18.70;;;5.10;99.90;;;;;;5041461;28;20182;-77
2022/11/29 09:58:59;;;;;;;26.07;21.07;;;5.10;99.90;;;;;;5041720;28;20273;-77
2022/11/29 10:01:37;;;;;;;27.20;21.23;;;5.20;99.90;;;;;;5043027;28;20264;-78
2022/11/29 10:04:10;;;;;;;25.53;18.93;;;5.10;99.90;;;;;;5043166;28;20769;-77
2022/11/29 10:06:40;;;;;;;25.53;18.97;;;5.20;99.90;;;;;;5042294;28;20687;-77
2022/11/29 10:09:24;;;;;;;31.13;21.13;;;5.20;99.90;;;;;;5042576;28;20174;-77
2022/11/29 10:12:18;;;;;;;26.67;19.20;;;5.20;99.90;;;;;;5041829;28;20240;-77
2022/11/29 10:14:55;;;;;;;30.97;22.60;;;5.20;99.90;;;;;;5042598;28;20193;-76
2022/11/29 10:17:33;;;;;;;35.90;28.63;;;5.20;99.90;;;;;;5042346;28;20359;-77
2022/11/29 10:20:09;;;;;;;36.13;25.70;;;5.20;99.90;;;;;;5041653;28;20213;-77
2022/11/29 10:22:41;;;;;;;26.40;19.37;;;5.30;99.90;;;;;;5037976;28;20201;-77
2022/11/29 10:25:09;;;;;;;59.07;46.40;;;5.20;99.90;;;;;;5037703;28;20202;-77
2022/11/29 10:27:39;;;;;;;28.63;22.43;;;5.30;99.90;;;;;;5036874;28;21073;-77
2022/11/29 10:30:11;;;;;;;30.63;22.00;;;5.20;99.90;;;;;;5040964;28;20182;-77
2022/11/29 10:32:37;;;;;;;28.77;22.43;;;5.10;99.90;;;;;;5039461;28;20209;-77
2022/11/29 10:35:10;;;;;;;35.47;27.90;;;5.20;99.90;;;;;;5043210;28;20186;-77
2022/11/29 10:37:37;;;;;;;29.77;21.20;;;5.30;99.90;;;;;;5041858;28;20197;-77
2022/11/29 10:40:12;;;;;;;28.50;21.63;;;5.30;99.90;;;;;;5043153;28;20448;-76
2022/11/29 10:42:52;;;;;;;31.60;23.37;;;5.30;99.90;;;;;;5039437;28;20206;-77
2022/11/29 10:45:44;;;;;;;25.60;18.80;;;5.40;99.90;;;;;;5040849;28;20218;-77
2022/11/29 10:48:15;;;;;;;43.03;33.17;;;5.50;99.90;;;;;;5039826;28;20220;-77
2022/11/29 10:50:43;;;;;;;35.10;24.63;;;5.40;99.90;;;;;;5040177;28;20218;-77
2022/11/29 10:53:31;;;;;;;35.33;27.43;;;5.50;99.90;;;;;;5039168;28;20206;-77
2022/11/29 10:56:04;;;;;;;26.43;19.50;;;5.60;99.90;;;;;;5041140;28;20194;-76
2022/11/29 10:58:31;;;;;;;24.60;18.63;;;5.60;99.90;;;;;;5040718;28;20186;-77
2022/11/29 11:00:59;;;;;;;24.60;19.07;;;5.50;99.90;;;;;;5042368;28;20197;-76
2022/11/29 11:03:52;;;;;;;27.13;19.30;;;5.80;99.90;;;;;;5042743;28;20217;-77
2022/11/29 11:06:21;;;;;;;23.20;18.33;;;5.70;99.90;;;;;;5040305;28;20236;-76
2022/11/29 11:08:53;;;;;;;25.33;18.83;;;5.70;99.90;;;;;;5042768;28;20189;-77
2022/11/29 11:11:29;;;;;;;33.77;25.50;;;5.70;99.90;;;;;;5042781;28;21060;-77
2022/11/29 11:14:18;;;;;;;45.10;35.70;;;5.70;99.90;;;;;;5041173;28;20573;-77
2022/11/29 11:16:44;;;;;;;27.50;19.27;;;5.60;99.90;;;;;;5043094;28;20791;-77
2022/11/29 11:19:33;;;;;;;31.57;22.90;;;5.70;99.90;;;;;;5044801;28;20296;-77
2022/11/29 11:22:00;;;;;;;33.27;25.50;;;5.60;99.90;;;;;;5046008;28;20201;-77
2022/11/29 11:24:33;;;;;;;36.60;26.07;;;5.50;99.90;;;;;;5046012;28;20744;-77
2022/11/29 11:27:00;;;;;;;48.43;34.03;;;5.60;99.90;;;;;;5046291;28;20206;-77
2022/11/29 11:29:38;;;;;;;52.90;36.70;;;5.50;99.90;;;;;;5045161;28;20244;-77
2022/11/29 11:32:06;;;;;;;39.97;21.93;;;5.40;99.90;;;;;;5045361;28;20193;-77
2022/11/29 11:34:36;;;;;;;33.67;20.83;;;5.60;99.90;;;;;;5044857;28;20190;-77
2022/11/29 11:37:15;;;;;;;35.50;20.53;;;5.70;99.90;;;;;;5044177;28;20186;-77
2022/11/29 11:39:46;;;;;;;33.90;22.10;;;5.60;99.90;;;;;;5043246;28;20189;-76
2022/11/29 11:45:01;;;;;;;30.00;20.80;;;5.80;99.90;;;;;;5045055;28;20189;-77
2022/11/29 11:47:29;;;;;;;33.63;20.93;;;5.60;99.90;;;;;;5044422;28;20192;-77
2022/11/29 11:50:02;;;;;;;34.60;22.70;;;5.60;99.90;;;;;;5044803;28;20178;-76
2022/11/29 11:52:44;;;;;;;33.77;20.90;;;5.60;99.90;;;;;;5044247;28;20205;-77
2022/11/29 11:55:21;;;;;;;35.90;22.93;;;5.60;99.90;;;;;;5046901;28;20178;-77
2022/11/29 11:58:04;;;;;;;38.63;22.67;;;5.60;99.90;;;;;;5044538;28;20192;-77
2022/11/29 12:00:43;;;;;;;36.17;23.17;;;5.90;99.90;;;;;;5042252;28;20182;-77
2022/11/29 12:03:48;;;;;;;37.50;21.97;;;5.50;99.90;;;;;;5044115;28;20273;-77
2022/11/29 12:06:27;;;;;;;32.23;21.73;;;5.50;99.90;;;;;;5046474;28;20299;-78
2022/11/29 12:09:07;;;;;;;43.33;27.07;;;5.60;99.90;;;;;;5048571;28;20597;-77
2022/11/29 12:11:48;;;;;;;41.23;23.50;;;5.60;99.90;;;;;;5045355;28;20196;-77
2022/11/29 12:14:49;;;;;;;35.33;23.00;;;5.60;99.90;;;;;;5040024;28;20402;-76
2022/11/29 12:17:29;;;;;;;35.20;22.23;;;5.60;99.90;;;;;;5043892;28;20208;-77
2022/11/29 12:20:29;;;;;;;34.23;23.20;;;5.70;99.90;;;;;;5047865;28;20178;-77
2022/11/29 12:23:13;;;;;;;40.07;24.10;;;5.70;99.90;;;;;;5044974;28;20210;-76
2022/11/29 12:25:59;;;;;;;36.27;22.93;;;5.70;99.90;;;;;;5045233;28;20924;-76
2022/11/29 12:28:31;;;;;;;33.50;22.87;;;5.70;99.90;;;;;;5047762;28;20182;-77
2022/11/29 12:31:21;;;;;;;43.00;23.57;;;5.60;99.90;;;;;;5045910;28;20186;-77
2022/11/29 12:34:14;;;;;;;36.40;21.93;;;5.70;99.90;;;;;;5046213;28;20210;-76
2022/11/29 12:37:17;;;;;;;41.07;22.47;;;5.70;99.90;;;;;;5045357;28;20240;-75
2022/11/29 12:39:51;;;;;;;44.30;23.00;;;5.60;99.90;;;;;;5047135;28;20235;-75
2022/11/29 12:43:01;;;;;;;47.47;23.60;;;5.60;99.90;;;;;;5046972;28;20186;-77
2022/11/29 12:45:54;;;;;;;41.83;23.37;;;5.60;99.90;;;;;;5043238;28;20753;-78
2022/11/29 12:48:35;;;;;;;39.37;23.17;;;5.60;99.90;;;;;;5043710;28;20900;-76
2022/11/29 12:51:11;;;;;;;45.63;25.67;;;5.60;99.90;;;;;;5042165;28;20194;-77
2022/11/29 12:53:51;;;;;;;57.20;36.00;;;6.00;99.90;;;;;;5043626;28;20651;-79
2022/11/29 12:56:32;;;;;;;47.10;27.43;;;5.50;99.90;;;;;;5042620;28;20331;-79
2022/11/29 12:59:00;;;;;;;59.60;34.10;;;5.50;99.90;;;;;;5044325;28;20178;-78
2022/11/29 13:01:58;;;;;;;47.60;28.67;;;5.50;99.90;;;;;;5043223;28;20190;-79
2022/11/29 13:04:42;;;;;;;47.50;25.97;;;5.50;99.90;;;;;;5040354;28;20234;-77
2022/11/29 13:07:40;;;;;;;45.93;24.60;;;5.50;99.90;;;;;;5041876;28;20232;-78
2022/11/29 13:10:19;;;;;;;49.80;26.57;;;5.50;99.90;;;;;;5043537;28;20198;-78
2022/11/29 13:12:58;;;;;;;49.20;27.00;;;5.50;99.90;;;;;;5043065;28;20206;-78
2022/11/29 13:15:49;;;;;;;53.80;29.50;;;5.40;99.90;;;;;;5043550;28;20213;-81
2022/11/29 13:18:42;;;;;;;48.37;28.33;;;5.50;1.00;;;;;;5040673;28;20546;-80
2022/11/29 13:21:19;;;;;;;50.53;27.97;;;5.50;1.00;;;;;;5042204;28;20210;-79
2022/11/29 13:24:05;;;;;;;48.17;27.40;;;5.40;1.00;;;;;;5044260;28;20275;-79
2022/11/29 13:26:32;;;;;;;52.57;27.43;;;5.50;1.00;;;;;;5035293;28;20287;-78
2022/11/29 13:28:59;;;;;;;49.50;27.10;;;5.50;1.00;;;;;;5043025;28;20193;-81
2022/11/29 13:31:25;;;;;;;48.07;27.30;;;5.50;1.00;;;;;;5045285;28;20197;-79
2022/11/29 13:33:53;;;;;;;48.23;26.77;;;5.50;1.00;;;;;;5045041;28;20260;-78
2022/11/29 13:36:37;;;;;;;44.13;25.50;;;5.50;1.00;;;;;;5043624;28;20692;-78
2022/11/29 13:39:15;;;;;;;47.67;24.70;;;5.50;1.00;;;;;;5044613;28;20193;-78
2022/11/29 13:41:54;;;;;;;43.93;25.10;;;5.40;1.00;;;;;;5042878;28;20190;-81